RJD weather

Ridgely Airpark
Ridgely, Maryland, United States

Public forecast

Using degrees Fahrenheit for public forecast. Weather courtesy of forecast.io.

Closest aviation weather report (METAR) to Ridgely Airpark

Closest report is Easton Newnam Field, 13.7 nm (25.5 km) SW. Retrieved 2019/10/14 14:50 UTC (23 minutes ago):

KESN 141450Z 29005KT 10SM SKC 18/16 A3008

Closest aviation forecast (TAF) to Ridgely Airpark

Closest forecast is Dover Air Force Base, 21.0 nm (38.8 km) ENE. Retrieved 2019/10/14 16:16 UTC (0 seconds ago):

TAF KDOV 141612Z 1416/1522 29010G15KT 9999 FEW100 QNH3002INS BECMG 1422/1423 VRB06KT 9999 SKC QNH3002INS BECMG 1511/1512 05006KT 9999 SKC QNH3017INS WND 13006KT AFT 1518 TX22/1418Z TN10/1511Z